sensor_id;sensor_type;location;lat;lon;timestamp;P1;durP1;ratioP1;P2;durP2;ratioP2
28625;SDS011;18905;42.668;23.364;2023-06-19T00:01:26;9.05;;;4.28;;
28625;SDS011;18905;42.668;23.364;2023-06-19T00:03:52;7.78;;;4.75;;
28625;SDS011;18905;42.668;23.364;2023-06-19T00:06:17;7.63;;;4.93;;
28625;SDS011;18905;42.668;23.364;2023-06-19T00:08:43;11.18;;;5.00;;
28625;SDS011;18905;42.668;23.364;2023-06-19T00:11:08;6.07;;;5.00;;
28625;SDS011;18905;42.668;23.364;2023-06-19T00:13:34;7.68;;;4.93;;
28625;SDS011;18905;42.668;23.364;2023-06-19T00:15:59;6.65;;;4.90;;
28625;SDS011;18905;42.668;23.364;2023-06-19T00:18:26;7.90;;;5.30;;
28625;SDS011;18905;42.668;23.364;2023-06-19T00:20:52;11.95;;;5.95;;
28625;SDS011;18905;42.668;23.364;2023-06-19T00:23:19;7.65;;;4.63;;
28625;SDS011;18905;42.668;23.364;2023-06-19T00:25:45;8.23;;;5.30;;
28625;SDS011;18905;42.668;23.364;2023-06-19T00:28:10;9.60;;;5.03;;
28625;SDS011;18905;42.668;23.364;2023-06-19T00:30:39;8.00;;;4.38;;
28625;SDS011;18905;42.668;23.364;2023-06-19T00:33:04;9.45;;;4.53;;
28625;SDS011;18905;42.668;23.364;2023-06-19T00:35:30;8.68;;;5.40;;
28625;SDS011;18905;42.668;23.364;2023-06-19T00:37:55;10.18;;;5.13;;
28625;SDS011;18905;42.668;23.364;2023-06-19T00:40:24;8.35;;;4.97;;
28625;SDS011;18905;42.668;23.364;2023-06-19T00:42:53;6.65;;;4.57;;
28625;SDS011;18905;42.668;23.364;2023-06-19T00:45:18;8.68;;;4.85;;
28625;SDS011;18905;42.668;23.364;2023-06-19T00:47:43;9.80;;;4.85;;
28625;SDS011;18905;42.668;23.364;2023-06-19T00:50:10;9.27;;;4.97;;
28625;SDS011;18905;42.668;23.364;2023-06-19T00:52:36;7.60;;;4.72;;
28625;SDS011;18905;42.668;23.364;2023-06-19T00:55:03;8.52;;;5.43;;
28625;SDS011;18905;42.668;23.364;2023-06-19T00:57:30;10.32;;;4.97;;
28625;SDS011;18905;42.668;23.364;2023-06-19T00:59:56;8.13;;;5.25;;
28625;SDS011;18905;42.668;23.364;2023-06-19T01:02:22;6.78;;;5.18;;
28625;SDS011;18905;42.668;23.364;2023-06-19T01:04:49;6.28;;;5.05;;
28625;SDS011;18905;42.668;23.364;2023-06-19T01:07:19;5.57;;;4.75;;
28625;SDS011;18905;42.668;23.364;2023-06-19T01:10:07;7.97;;;5.03;;
28625;SDS011;18905;42.668;23.364;2023-06-19T01:12:38;7.10;;;5.10;;
28625;SDS011;18905;42.668;23.364;2023-06-19T01:15:13;8.32;;;5.07;;
28625;SDS011;18905;42.668;23.364;2023-06-19T01:17:39;11.18;;;5.65;;
28625;SDS011;18905;42.668;23.364;2023-06-19T01:20:05;7.88;;;4.60;;
28625;SDS011;18905;42.668;23.364;2023-06-19T01:22:35;8.32;;;4.70;;
28625;SDS011;18905;42.668;23.364;2023-06-19T01:25:01;9.23;;;4.30;;
28625;SDS011;18905;42.668;23.364;2023-06-19T01:27:29;7.10;;;4.40;;
28625;SDS011;18905;42.668;23.364;2023-06-19T01:29:55;6.47;;;4.28;;
28625;SDS011;18905;42.668;23.364;2023-06-19T01:34:53;6.07;;;4.90;;
28625;SDS011;18905;42.668;23.364;2023-06-19T01:37:22;6.88;;;4.90;;
28625;SDS011;18905;42.668;23.364;2023-06-19T01:39:52;7.65;;;4.80;;
28625;SDS011;18905;42.668;23.364;2023-06-19T01:42:18;9.15;;;4.85;;
28625;SDS011;18905;42.668;23.364;2023-06-19T01:44:44;6.63;;;4.50;;
28625;SDS011;18905;42.668;23.364;2023-06-19T01:47:11;6.57;;;4.45;;
28625;SDS011;18905;42.668;23.364;2023-06-19T01:49:37;8.23;;;5.65;;
28625;SDS011;18905;42.668;23.364;2023-06-19T01:52:03;6.43;;;4.40;;
28625;SDS011;18905;42.668;23.364;2023-06-19T01:54:28;8.45;;;5.05;;
28625;SDS011;18905;42.668;23.364;2023-06-19T01:56:54;7.07;;;5.10;;
28625;SDS011;18905;42.668;23.364;2023-06-19T01:59:19;6.32;;;4.70;;
28625;SDS011;18905;42.668;23.364;2023-06-19T02:01:46;7.13;;;5.13;;
28625;SDS011;18905;42.668;23.364;2023-06-19T02:04:11;6.63;;;4.93;;
28625;SDS011;18905;42.668;23.364;2023-06-19T02:06:37;6.90;;;5.07;;
28625;SDS011;18905;42.668;23.364;2023-06-19T02:09:02;6.28;;;5.03;;
28625;SDS011;18905;42.668;23.364;2023-06-19T02:11:27;6.03;;;5.03;;
28625;SDS011;18905;42.668;23.364;2023-06-19T02:13:53;8.02;;;5.32;;
28625;SDS011;18905;42.668;23.364;2023-06-19T02:16:18;9.18;;;5.82;;
28625;SDS011;18905;42.668;23.364;2023-06-19T02:18:43;10.38;;;5.18;;
28625;SDS011;18905;42.668;23.364;2023-06-19T02:21:09;8.02;;;4.85;;
28625;SDS011;18905;42.668;23.364;2023-06-19T02:23:34;9.70;;;5.18;;
28625;SDS011;18905;42.668;23.364;2023-06-19T02:26:00;15.43;;;5.20;;
28625;SDS011;18905;42.668;23.364;2023-06-19T02:28:25;7.07;;;5.25;;
28625;SDS011;18905;42.668;23.364;2023-06-19T02:30:52;11.82;;;5.28;;
28625;SDS011;18905;42.668;23.364;2023-06-19T02:33:18;10.40;;;5.30;;
28625;SDS011;18905;42.668;23.364;2023-06-19T02:35:44;10.23;;;5.97;;
28625;SDS011;18905;42.668;23.364;2023-06-19T02:38:10;14.48;;;5.85;;
28625;SDS011;18905;42.668;23.364;2023-06-19T02:40:36;8.85;;;5.25;;
28625;SDS011;18905;42.668;23.364;2023-06-19T02:43:01;10.07;;;5.55;;
28625;SDS011;18905;42.668;23.364;2023-06-19T02:45:27;11.07;;;6.00;;
28625;SDS011;18905;42.668;23.364;2023-06-19T02:47:52;10.93;;;5.60;;
28625;SDS011;18905;42.668;23.364;2023-06-19T02:50:18;8.68;;;5.70;;
28625;SDS011;18905;42.668;23.364;2023-06-19T02:52:43;14.63;;;5.82;;
28625;SDS011;18905;42.668;23.364;2023-06-19T02:55:09;9.45;;;6.18;;
28625;SDS011;18905;42.668;23.364;2023-06-19T02:57:34;12.10;;;5.78;;
28625;SDS011;18905;42.668;23.364;2023-06-19T02:59:59;8.35;;;5.90;;
28625;SDS011;18905;42.668;23.364;2023-06-19T03:02:25;10.13;;;6.00;;
28625;SDS011;18905;42.668;23.364;2023-06-19T03:04:51;10.55;;;6.32;;
28625;SDS011;18905;42.668;23.364;2023-06-19T03:07:17;13.38;;;7.25;;
28625;SDS011;18905;42.668;23.364;2023-06-19T03:09:42;8.85;;;5.82;;
28625;SDS011;18905;42.668;23.364;2023-06-19T03:12:08;10.48;;;5.78;;
28625;SDS011;18905;42.668;23.364;2023-06-19T03:14:34;10.73;;;6.25;;
28625;SDS011;18905;42.668;23.364;2023-06-19T03:16:59;12.02;;;6.72;;
28625;SDS011;18905;42.668;23.364;2023-06-19T03:19:25;14.48;;;6.88;;
28625;SDS011;18905;42.668;23.364;2023-06-19T03:21:50;8.45;;;6.45;;
28625;SDS011;18905;42.668;23.364;2023-06-19T03:24:16;10.98;;;6.70;;
28625;SDS011;18905;42.668;23.364;2023-06-19T03:26:41;10.20;;;6.10;;
28625;SDS011;18905;42.668;23.364;2023-06-19T03:29:06;10.98;;;5.70;;
28625;SDS011;18905;42.668;23.364;2023-06-19T03:31:32;13.70;;;6.18;;
28625;SDS011;18905;42.668;23.364;2023-06-19T03:33:57;9.15;;;6.28;;
28625;SDS011;18905;42.668;23.364;2023-06-19T03:36:23;9.88;;;6.40;;
28625;SDS011;18905;42.668;23.364;2023-06-19T03:38:48;13.20;;;6.63;;
28625;SDS011;18905;42.668;23.364;2023-06-19T03:41:13;13.18;;;6.50;;
28625;SDS011;18905;42.668;23.364;2023-06-19T03:43:39;8.50;;;5.88;;
28625;SDS011;18905;42.668;23.364;2023-06-19T03:46:04;12.30;;;5.80;;
28625;SDS011;18905;42.668;23.364;2023-06-19T03:48:30;9.68;;;5.50;;
28625;SDS011;18905;42.668;23.364;2023-06-19T03:50:56;10.98;;;6.72;;
28625;SDS011;18905;42.668;23.364;2023-06-19T03:53:21;11.23;;;6.55;;
28625;SDS011;18905;42.668;23.364;2023-06-19T03:55:47;15.32;;;6.60;;
28625;SDS011;18905;42.668;23.364;2023-06-19T03:58:12;16.52;;;7.07;;
28625;SDS011;18905;42.668;23.364;2023-06-19T04:00:38;25.13;;;7.57;;
28625;SDS011;18905;42.668;23.364;2023-06-19T04:03:03;19.20;;;7.20;;
28625;SDS011;18905;42.668;23.364;2023-06-19T04:05:29;18.27;;;6.85;;
28625;SDS011;18905;42.668;23.364;2023-06-19T04:07:54;13.55;;;7.05;;
28625;SDS011;18905;42.668;23.364;2023-06-19T04:10:19;19.85;;;7.35;;
28625;SDS011;18905;42.668;23.364;2023-06-19T04:12:45;15.18;;;7.15;;
28625;SDS011;18905;42.668;23.364;2023-06-19T04:15:11;16.58;;;7.28;;
28625;SDS011;18905;42.668;23.364;2023-06-19T04:17:36;12.82;;;7.80;;
28625;SDS011;18905;42.668;23.364;2023-06-19T04:20:02;13.68;;;7.45;;
28625;SDS011;18905;42.668;23.364;2023-06-19T04:22:35;15.60;;;7.18;;
28625;SDS011;18905;42.668;23.364;2023-06-19T04:25:02;9.95;;;6.72;;
28625;SDS011;18905;42.668;23.364;2023-06-19T04:27:27;12.18;;;7.13;;
28625;SDS011;18905;42.668;23.364;2023-06-19T04:29:53;15.10;;;7.65;;
28625;SDS011;18905;42.668;23.364;2023-06-19T04:32:18;13.02;;;7.13;;
28625;SDS011;18905;42.668;23.364;2023-06-19T04:34:43;17.77;;;7.68;;
28625;SDS011;18905;42.668;23.364;2023-06-19T04:37:11;14.77;;;8.00;;
28625;SDS011;18905;42.668;23.364;2023-06-19T04:39:36;14.98;;;7.45;;
28625;SDS011;18905;42.668;23.364;2023-06-19T04:42:02;15.43;;;7.53;;
28625;SDS011;18905;42.668;23.364;2023-06-19T04:44:27;16.40;;;8.77;;
28625;SDS011;18905;42.668;23.364;2023-06-19T04:46:55;17.23;;;8.38;;
28625;SDS011;18905;42.668;23.364;2023-06-19T04:49:26;19.90;;;10.10;;
28625;SDS011;18905;42.668;23.364;2023-06-19T04:51:57;17.45;;;9.80;;
28625;SDS011;18905;42.668;23.364;2023-06-19T04:54:23;20.02;;;10.20;;
28625;SDS011;18905;42.668;23.364;2023-06-19T04:56:49;21.17;;;9.75;;
28625;SDS011;18905;42.668;23.364;2023-06-19T04:59:15;19.73;;;11.55;;
28625;SDS011;18905;42.668;23.364;2023-06-19T05:01:43;19.73;;;10.38;;
28625;SDS011;18905;42.668;23.364;2023-06-19T05:04:08;20.45;;;12.38;;
28625;SDS011;18905;42.668;23.364;2023-06-19T05:06:36;21.05;;;10.25;;
28625;SDS011;18905;42.668;23.364;2023-06-19T05:09:01;20.10;;;13.93;;
28625;SDS011;18905;42.668;23.364;2023-06-19T05:11:26;26.27;;;15.77;;
28625;SDS011;18905;42.668;23.364;2023-06-19T05:13:52;17.90;;;10.80;;
28625;SDS011;18905;42.668;23.364;2023-06-19T05:16:17;17.02;;;9.10;;
28625;SDS011;18905;42.668;23.364;2023-06-19T05:18:44;10.57;;;6.32;;
28625;SDS011;18905;42.668;23.364;2023-06-19T05:21:10;12.95;;;7.25;;
28625;SDS011;18905;42.668;23.364;2023-06-19T05:23:35;12.02;;;5.63;;
28625;SDS011;18905;42.668;23.364;2023-06-19T05:26:01;10.93;;;5.53;;
28625;SDS011;18905;42.668;23.364;2023-06-19T05:28:27;15.77;;;6.82;;
28625;SDS011;18905;42.668;23.364;2023-06-19T05:30:52;8.43;;;6.38;;
28625;SDS011;18905;42.668;23.364;2023-06-19T05:33:18;8.60;;;5.60;;
28625;SDS011;18905;42.668;23.364;2023-06-19T05:35:43;11.45;;;5.05;;
28625;SDS011;18905;42.668;23.364;2023-06-19T05:38:15;9.02;;;4.50;;
28625;SDS011;18905;42.668;23.364;2023-06-19T05:40:41;7.35;;;4.32;;
28625;SDS011;18905;42.668;23.364;2023-06-19T05:43:06;6.78;;;4.43;;
28625;SDS011;18905;42.668;23.364;2023-06-19T05:45:32;8.13;;;4.75;;
28625;SDS011;18905;42.668;23.364;2023-06-19T05:47:57;8.35;;;4.75;;
28625;SDS011;18905;42.668;23.364;2023-06-19T05:50:22;8.75;;;4.40;;
28625;SDS011;18905;42.668;23.364;2023-06-19T05:52:48;7.97;;;4.53;;
28625;SDS011;18905;42.668;23.364;2023-06-19T05:55:13;8.00;;;4.47;;
28625;SDS011;18905;42.668;23.364;2023-06-19T05:57:38;11.43;;;4.50;;
28625;SDS011;18905;42.668;23.364;2023-06-19T06:00:04;7.65;;;4.35;;
28625;SDS011;18905;42.668;23.364;2023-06-19T06:02:31;7.80;;;4.90;;
28625;SDS011;18905;42.668;23.364;2023-06-19T06:04:57;8.95;;;4.53;;
28625;SDS011;18905;42.668;23.364;2023-06-19T06:07:22;10.88;;;5.32;;
28625;SDS011;18905;42.668;23.364;2023-06-19T06:09:47;9.07;;;4.88;;
28625;SDS011;18905;42.668;23.364;2023-06-19T06:12:13;10.90;;;4.70;;
28625;SDS011;18905;42.668;23.364;2023-06-19T06:14:39;10.30;;;4.72;;
28625;SDS011;18905;42.668;23.364;2023-06-19T06:17:06;9.05;;;4.40;;
28625;SDS011;18905;42.668;23.364;2023-06-19T06:19:32;12.32;;;4.53;;
28625;SDS011;18905;42.668;23.364;2023-06-19T06:21:57;16.20;;;4.97;;
28625;SDS011;18905;42.668;23.364;2023-06-19T06:24:22;24.77;;;6.90;;
28625;SDS011;18905;42.668;23.364;2023-06-19T06:26:48;11.23;;;4.60;;
28625;SDS011;18905;42.668;23.364;2023-06-19T06:29:13;10.82;;;5.78;;
28625;SDS011;18905;42.668;23.364;2023-06-19T06:31:38;7.68;;;4.25;;
28625;SDS011;18905;42.668;23.364;2023-06-19T06:34:06;9.77;;;4.90;;
28625;SDS011;18905;42.668;23.364;2023-06-19T06:36:32;12.00;;;5.03;;
28625;SDS011;18905;42.668;23.364;2023-06-19T06:38:57;6.47;;;4.40;;
28625;SDS011;18905;42.668;23.364;2023-06-19T06:41:22;6.45;;;4.18;;
28625;SDS011;18905;42.668;23.364;2023-06-19T06:43:48;13.20;;;5.57;;
28625;SDS011;18905;42.668;23.364;2023-06-19T06:46:13;19.08;;;5.88;;
28625;SDS011;18905;42.668;23.364;2023-06-19T06:48:39;10.30;;;4.47;;
28625;SDS011;18905;42.668;23.364;2023-06-19T06:51:05;5.93;;;4.00;;
28625;SDS011;18905;42.668;23.364;2023-06-19T06:53:30;6.03;;;4.03;;
28625;SDS011;18905;42.668;23.364;2023-06-19T06:55:59;6.07;;;4.45;;
28625;SDS011;18905;42.668;23.364;2023-06-19T06:58:25;10.00;;;4.10;;
28625;SDS011;18905;42.668;23.364;2023-06-19T07:00:51;6.10;;;4.13;;
28625;SDS011;18905;42.668;23.364;2023-06-19T07:03:17;4.93;;;4.13;;
28625;SDS011;18905;42.668;23.364;2023-06-19T07:05:43;6.70;;;4.30;;
28625;SDS011;18905;42.668;23.364;2023-06-19T07:08:09;7.88;;;4.47;;
28625;SDS011;18905;42.668;23.364;2023-06-19T07:10:34;9.65;;;4.90;;
28625;SDS011;18905;42.668;23.364;2023-06-19T07:13:00;8.13;;;4.30;;
28625;SDS011;18905;42.668;23.364;2023-06-19T07:15:25;10.07;;;4.88;;
28625;SDS011;18905;42.668;23.364;2023-06-19T07:17:50;9.88;;;4.55;;
28625;SDS011;18905;42.668;23.364;2023-06-19T07:20:16;7.75;;;3.95;;
28625;SDS011;18905;42.668;23.364;2023-06-19T07:22:41;8.95;;;3.90;;
28625;SDS011;18905;42.668;23.364;2023-06-19T07:25:07;12.50;;;6.25;;
28625;SDS011;18905;42.668;23.364;2023-06-19T07:27:35;7.95;;;4.35;;
28625;SDS011;18905;42.668;23.364;2023-06-19T07:30:01;12.52;;;6.82;;
28625;SDS011;18905;42.668;23.364;2023-06-19T07:32:26;5.65;;;4.18;;
28625;SDS011;18905;42.668;23.364;2023-06-19T07:34:52;9.35;;;4.55;;
28625;SDS011;18905;42.668;23.364;2023-06-19T07:37:18;8.32;;;4.68;;
28625;SDS011;18905;42.668;23.364;2023-06-19T07:39:44;6.65;;;4.53;;
28625;SDS011;18905;42.668;23.364;2023-06-19T07:42:13;7.25;;;5.25;;
28625;SDS011;18905;42.668;23.364;2023-06-19T07:44:39;6.57;;;4.13;;
28625;SDS011;18905;42.668;23.364;2023-06-19T07:47:05;6.15;;;4.40;;
28625;SDS011;18905;42.668;23.364;2023-06-19T07:49:31;8.15;;;5.57;;
28625;SDS011;18905;42.668;23.364;2023-06-19T07:51:57;7.28;;;4.55;;
28625;SDS011;18905;42.668;23.364;2023-06-19T07:54:22;5.68;;;4.05;;
28625;SDS011;18905;42.668;23.364;2023-06-19T07:56:47;5.60;;;4.35;;
28625;SDS011;18905;42.668;23.364;2023-06-19T07:59:13;12.95;;;4.72;;
28625;SDS011;18905;42.668;23.364;2023-06-19T08:01:39;6.05;;;3.95;;
28625;SDS011;18905;42.668;23.364;2023-06-19T08:04:05;11.63;;;3.70;;
28625;SDS011;18905;42.668;23.364;2023-06-19T08:06:31;6.38;;;4.03;;
28625;SDS011;18905;42.668;23.364;2023-06-19T08:08:57;8.02;;;4.10;;
28625;SDS011;18905;42.668;23.364;2023-06-19T08:11:22;4.88;;;3.80;;
28625;SDS011;18905;42.668;23.364;2023-06-19T08:13:48;6.05;;;4.18;;
28625;SDS011;18905;42.668;23.364;2023-06-19T08:16:14;5.68;;;4.28;;
28625;SDS011;18905;42.668;23.364;2023-06-19T08:18:39;6.93;;;4.20;;
28625;SDS011;18905;42.668;23.364;2023-06-19T08:21:05;6.40;;;3.88;;
28625;SDS011;18905;42.668;23.364;2023-06-19T08:23:30;5.35;;;3.50;;
28625;SDS011;18905;42.668;23.364;2023-06-19T08:25:55;4.65;;;3.65;;
28625;SDS011;18905;42.668;23.364;2023-06-19T08:28:21;8.52;;;4.45;;
28625;SDS011;18905;42.668;23.364;2023-06-19T08:30:46;5.70;;;3.80;;
28625;SDS011;18905;42.668;23.364;2023-06-19T08:33:13;11.82;;;3.80;;
28625;SDS011;18905;42.668;23.364;2023-06-19T08:35:39;11.52;;;4.22;;
28625;SDS011;18905;42.668;23.364;2023-06-19T08:38:04;7.10;;;4.15;;
28625;SDS011;18905;42.668;23.364;2023-06-19T08:40:29;7.45;;;4.35;;
28625;SDS011;18905;42.668;23.364;2023-06-19T08:42:55;5.45;;;3.65;;
28625;SDS011;18905;42.668;23.364;2023-06-19T08:45:21;6.63;;;3.60;;
28625;SDS011;18905;42.668;23.364;2023-06-19T08:47:47;10.65;;;3.63;;
28625;SDS011;18905;42.668;23.364;2023-06-19T08:50:14;5.13;;;3.58;;
28625;SDS011;18905;42.668;23.364;2023-06-19T08:52:40;4.35;;;3.55;;
28625;SDS011;18905;42.668;23.364;2023-06-19T08:55:06;5.63;;;3.70;;
28625;SDS011;18905;42.668;23.364;2023-06-19T08:57:35;6.15;;;3.90;;
28625;SDS011;18905;42.668;23.364;2023-06-19T09:00:03;4.90;;;3.53;;
28625;SDS011;18905;42.668;23.364;2023-06-19T09:02:41;7.35;;;3.97;;
28625;SDS011;18905;42.668;23.364;2023-06-19T09:05:14;7.20;;;3.85;;
28625;SDS011;18905;42.668;23.364;2023-06-19T09:07:42;8.25;;;4.22;;
28625;SDS011;18905;42.668;23.364;2023-06-19T09:10:15;7.05;;;3.88;;
28625;SDS011;18905;42.668;23.364;2023-06-19T09:12:42;5.55;;;3.97;;
28625;SDS011;18905;42.668;23.364;2023-06-19T09:15:12;7.20;;;4.22;;
28625;SDS011;18905;42.668;23.364;2023-06-19T09:17:39;7.47;;;4.40;;
28625;SDS011;18905;42.668;23.364;2023-06-19T09:20:05;7.03;;;4.28;;
28625;SDS011;18905;42.668;23.364;2023-06-19T09:22:31;6.57;;;3.67;;
28625;SDS011;18905;42.668;23.364;2023-06-19T09:25:00;11.70;;;3.88;;
28625;SDS011;18905;42.668;23.364;2023-06-19T09:27:31;5.85;;;3.58;;
28625;SDS011;18905;42.668;23.364;2023-06-19T09:29:58;14.15;;;3.97;;
28625;SDS011;18905;42.668;23.364;2023-06-19T09:32:25;4.38;;;3.15;;
28625;SDS011;18905;42.668;23.364;2023-06-19T09:34:52;8.57;;;4.07;;
28625;SDS011;18905;42.668;23.364;2023-06-19T09:37:23;5.10;;;4.05;;
28625;SDS011;18905;42.668;23.364;2023-06-19T09:39:53;6.18;;;4.03;;
28625;SDS011;18905;42.668;23.364;2023-06-19T09:42:22;7.78;;;3.85;;
28625;SDS011;18905;42.668;23.364;2023-06-19T09:44:52;8.35;;;5.15;;
28625;SDS011;18905;42.668;23.364;2023-06-19T09:47:23;6.28;;;4.72;;
28625;SDS011;18905;42.668;23.364;2023-06-19T09:49:55;5.10;;;4.45;;
28625;SDS011;18905;42.668;23.364;2023-06-19T09:52:21;8.32;;;4.35;;
28625;SDS011;18905;42.668;23.364;2023-06-19T09:54:51;6.05;;;3.78;;
28625;SDS011;18905;42.668;23.364;2023-06-19T09:57:18;6.30;;;5.15;;
28625;SDS011;18905;42.668;23.364;2023-06-19T09:59:44;7.60;;;5.13;;
28625;SDS011;18905;42.668;23.364;2023-06-19T10:02:12;8.52;;;3.80;;
28625;SDS011;18905;42.668;23.364;2023-06-19T10:04:43;6.68;;;3.95;;
28625;SDS011;18905;42.668;23.364;2023-06-19T10:07:16;7.20;;;3.70;;
28625;SDS011;18905;42.668;23.364;2023-06-19T10:09:54;5.35;;;3.75;;
28625;SDS011;18905;42.668;23.364;2023-06-19T10:12:22;9.75;;;4.18;;
28625;SDS011;18905;42.668;23.364;2023-06-19T10:17:37;6.93;;;3.50;;
28625;SDS011;18905;42.668;23.364;2023-06-19T10:20:07;6.35;;;4.05;;
28625;SDS011;18905;42.668;23.364;2023-06-19T10:25:29;13.30;;;3.63;;
28625;SDS011;18905;42.668;23.364;2023-06-19T10:27:57;4.85;;;3.80;;
28625;SDS011;18905;42.668;23.364;2023-06-19T10:30:23;6.30;;;4.10;;
28625;SDS011;18905;42.668;23.364;2023-06-19T10:32:49;7.15;;;4.13;;
28625;SDS011;18905;42.668;23.364;2023-06-19T10:35:15;5.03;;;3.72;;
28625;SDS011;18905;42.668;23.364;2023-06-19T10:37:41;6.70;;;4.30;;
28625;SDS011;18905;42.668;23.364;2023-06-19T10:40:08;6.43;;;3.85;;
28625;SDS011;18905;42.668;23.364;2023-06-19T10:42:36;4.68;;;3.53;;
28625;SDS011;18905;42.668;23.364;2023-06-19T10:45:03;5.15;;;4.10;;
28625;SDS011;18905;42.668;23.364;2023-06-19T10:47:31;5.28;;;4.00;;
28625;SDS011;18905;42.668;23.364;2023-06-19T10:49:57;6.00;;;3.67;;
28625;SDS011;18905;42.668;23.364;2023-06-19T10:52:23;6.07;;;4.00;;
28625;SDS011;18905;42.668;23.364;2023-06-19T10:54:54;6.13;;;4.10;;
28625;SDS011;18905;42.668;23.364;2023-06-19T10:57:30;8.50;;;3.53;;
28625;SDS011;18905;42.668;23.364;2023-06-19T10:59:56;5.55;;;3.92;;
28625;SDS011;18905;42.668;23.364;2023-06-19T11:02:21;5.95;;;3.45;;
28625;SDS011;18905;42.668;23.364;2023-06-19T11:04:47;7.78;;;4.68;;
28625;SDS011;18905;42.668;23.364;2023-06-19T11:07:13;4.10;;;3.47;;
28625;SDS011;18905;42.668;23.364;2023-06-19T11:09:38;4.32;;;3.67;;
28625;SDS011;18905;42.668;23.364;2023-06-19T11:12:04;5.20;;;4.25;;
28625;SDS011;18905;42.668;23.364;2023-06-19T11:14:32;5.85;;;4.10;;
28625;SDS011;18905;42.668;23.364;2023-06-19T11:17:04;6.63;;;4.22;;
28625;SDS011;18905;42.668;23.364;2023-06-19T11:19:33;11.80;;;4.50;;
28625;SDS011;18905;42.668;23.364;2023-06-19T11:21:59;5.63;;;4.10;;
28625;SDS011;18905;42.668;23.364;2023-06-19T11:24:28;8.63;;;4.20;;
28625;SDS011;18905;42.668;23.364;2023-06-19T11:26:55;5.10;;;4.20;;
28625;SDS011;18905;42.668;23.364;2023-06-19T11:29:29;6.00;;;4.18;;
28625;SDS011;18905;42.668;23.364;2023-06-19T11:32:08;5.18;;;4.25;;
28625;SDS011;18905;42.668;23.364;2023-06-19T11:34:35;5.47;;;4.28;;
28625;SDS011;18905;42.668;23.364;2023-06-19T11:37:22;6.90;;;4.10;;
28625;SDS011;18905;42.668;23.364;2023-06-19T11:39:48;4.93;;;4.07;;
28625;SDS011;18905;42.668;23.364;2023-06-19T11:42:16;7.07;;;4.10;;
28625;SDS011;18905;42.668;23.364;2023-06-19T11:44:53;4.40;;;3.75;;
28625;SDS011;18905;42.668;23.364;2023-06-19T11:47:20;9.35;;;4.28;;
28625;SDS011;18905;42.668;23.364;2023-06-19T11:49:47;7.68;;;4.38;;
28625;SDS011;18905;42.668;23.364;2023-06-19T11:52:14;5.55;;;4.53;;
28625;SDS011;18905;42.668;23.364;2023-06-19T11:54:40;9.52;;;4.03;;
28625;SDS011;18905;42.668;23.364;2023-06-19T11:57:05;6.13;;;4.28;;
28625;SDS011;18905;42.668;23.364;2023-06-19T11:59:30;5.88;;;4.75;;
28625;SDS011;18905;42.668;23.364;2023-06-19T12:01:56;7.00;;;4.55;;
28625;SDS011;18905;42.668;23.364;2023-06-19T12:04:23;6.38;;;4.38;;
28625;SDS011;18905;42.668;23.364;2023-06-19T12:06:49;5.97;;;4.25;;
28625;SDS011;18905;42.668;23.364;2023-06-19T12:09:14;10.32;;;4.65;;
28625;SDS011;18905;42.668;23.364;2023-06-19T12:11:40;13.27;;;4.47;;
28625;SDS011;18905;42.668;23.364;2023-06-19T12:14:05;6.78;;;4.55;;
28625;SDS011;18905;42.668;23.364;2023-06-19T12:16:31;11.18;;;4.65;;
28625;SDS011;18905;42.668;23.364;2023-06-19T12:18:56;7.97;;;4.32;;
28625;SDS011;18905;42.668;23.364;2023-06-19T12:21:21;4.45;;;3.95;;
28625;SDS011;18905;42.668;23.364;2023-06-19T12:23:47;5.20;;;4.00;;
28625;SDS011;18905;42.668;23.364;2023-06-19T12:26:13;8.50;;;4.88;;
28625;SDS011;18905;42.668;23.364;2023-06-19T12:28:38;9.50;;;4.80;;
28625;SDS011;18905;42.668;23.364;2023-06-19T12:31:03;11.75;;;4.60;;
28625;SDS011;18905;42.668;23.364;2023-06-19T12:33:29;8.57;;;4.93;;
28625;SDS011;18905;42.668;23.364;2023-06-19T12:35:58;9.05;;;4.82;;
28625;SDS011;18905;42.668;23.364;2023-06-19T12:38:23;5.22;;;4.40;;
28625;SDS011;18905;42.668;23.364;2023-06-19T12:40:49;5.80;;;4.22;;
28625;SDS011;18905;42.668;23.364;2023-06-19T12:43:14;5.35;;;4.45;;
28625;SDS011;18905;42.668;23.364;2023-06-19T12:45:39;9.15;;;5.22;;
28625;SDS011;18905;42.668;23.364;2023-06-19T12:48:06;5.90;;;4.30;;
28625;SDS011;18905;42.668;23.364;2023-06-19T12:50:32;6.85;;;4.32;;
28625;SDS011;18905;42.668;23.364;2023-06-19T12:52:57;8.80;;;4.25;;
28625;SDS011;18905;42.668;23.364;2023-06-19T12:55:23;4.93;;;4.00;;
28625;SDS011;18905;42.668;23.364;2023-06-19T12:57:48;5.93;;;4.50;;
28625;SDS011;18905;42.668;23.364;2023-06-19T13:00:14;8.68;;;4.85;;
28625;SDS011;18905;42.668;23.364;2023-06-19T13:02:39;4.80;;;4.00;;
28625;SDS011;18905;42.668;23.364;2023-06-19T13:05:09;5.80;;;4.20;;
28625;SDS011;18905;42.668;23.364;2023-06-19T13:07:35;12.05;;;4.43;;
28625;SDS011;18905;42.668;23.364;2023-06-19T13:10:01;6.07;;;4.07;;
28625;SDS011;18905;42.668;23.364;2023-06-19T13:12:26;7.55;;;4.43;;
28625;SDS011;18905;42.668;23.364;2023-06-19T13:14:52;6.10;;;4.22;;
28625;SDS011;18905;42.668;23.364;2023-06-19T13:17:17;8.27;;;4.30;;
28625;SDS011;18905;42.668;23.364;2023-06-19T13:19:43;9.50;;;4.72;;
28625;SDS011;18905;42.668;23.364;2023-06-19T13:22:09;6.60;;;4.40;;
28625;SDS011;18905;42.668;23.364;2023-06-19T13:24:34;4.72;;;3.92;;
28625;SDS011;18905;42.668;23.364;2023-06-19T13:26:59;9.43;;;4.32;;
28625;SDS011;18905;42.668;23.364;2023-06-19T13:29:25;4.82;;;4.00;;
28625;SDS011;18905;42.668;23.364;2023-06-19T13:31:50;6.57;;;3.88;;
28625;SDS011;18905;42.668;23.364;2023-06-19T13:34:16;5.72;;;4.25;;
28625;SDS011;18905;42.668;23.364;2023-06-19T13:36:43;8.52;;;4.28;;
28625;SDS011;18905;42.668;23.364;2023-06-19T13:39:09;5.43;;;3.72;;
28625;SDS011;18905;42.668;23.364;2023-06-19T13:41:34;4.95;;;3.47;;
28625;SDS011;18905;42.668;23.364;2023-06-19T13:44:00;5.00;;;3.90;;
28625;SDS011;18905;42.668;23.364;2023-06-19T13:46:25;8.07;;;4.00;;
28625;SDS011;18905;42.668;23.364;2023-06-19T13:48:51;6.55;;;3.65;;
28625;SDS011;18905;42.668;23.364;2023-06-19T13:51:20;10.98;;;4.35;;
28625;SDS011;18905;42.668;23.364;2023-06-19T13:53:46;5.28;;;4.00;;
28625;SDS011;18905;42.668;23.364;2023-06-19T13:56:12;4.63;;;3.72;;
28625;SDS011;18905;42.668;23.364;2023-06-19T13:58:38;5.95;;;3.83;;
28625;SDS011;18905;42.668;23.364;2023-06-19T14:01:04;5.22;;;3.80;;
28625;SDS011;18905;42.668;23.364;2023-06-19T14:03:29;6.32;;;4.05;;
28625;SDS011;18905;42.668;23.364;2023-06-19T14:05:55;6.75;;;3.90;;
28625;SDS011;18905;42.668;23.364;2023-06-19T14:08:20;5.95;;;3.33;;
28625;SDS011;18905;42.668;23.364;2023-06-19T14:10:46;4.90;;;3.67;;
28625;SDS011;18905;42.668;23.364;2023-06-19T14:13:11;5.50;;;4.10;;
28625;SDS011;18905;42.668;23.364;2023-06-19T14:15:36;7.93;;;4.03;;
28625;SDS011;18905;42.668;23.364;2023-06-19T14:18:02;6.38;;;3.75;;
28625;SDS011;18905;42.668;23.364;2023-06-19T14:20:27;6.30;;;4.13;;
28625;SDS011;18905;42.668;23.364;2023-06-19T14:22:53;11.82;;;4.10;;
28625;SDS011;18905;42.668;23.364;2023-06-19T14:25:18;5.53;;;4.00;;
28625;SDS011;18905;42.668;23.364;2023-06-19T14:27:43;6.07;;;3.83;;
28625;SDS011;18905;42.668;23.364;2023-06-19T14:30:09;4.60;;;3.83;;
28625;SDS011;18905;42.668;23.364;2023-06-19T14:32:35;6.80;;;4.15;;
28625;SDS011;18905;42.668;23.364;2023-06-19T14:35:02;8.02;;;4.43;;